aviador You're here:

KUGN Decoded Metar

CHICAGO in IL, USA
Report Time2017-09-23 19:55:00
UTC Time2017-09-23 20:12:06
Flight Rules vfr VFR
Wind110° at 07 kt
W.Decomp.*RWY 14: 6.2 kt HW 3.2 kt LCW
RWY 05: 3.2 kt HW 6.2 kt RCW
W.Rank110° ranks 29
Current wind is above 110° avg. (6.8)
Visibility9999 m
Phenomena:N/A
Clouds:N/A
Expected CloudBase > 4,000 ft AGL from Temp-Dew spread
CeilingNone
Temp31°C (ISA +17)
Dew Point21°C (55% RH)
Heat Index33.7°C
QNH1018 hPa
Density Alt2,884 ft
Elevation728 ft
Report Wrong Elevation
Raw Report
METAR KUGN 231955Z 11007KT 9SM CLR 31/21 A3006 RMK AO2 SLP167 T03060206=

Extra information for KUGN:More info

Metar Taf Metar & Taf Last 4 Metars F.Rules Stats Wind Profile Meteogram Temp Stats Airport Information Weather charts Add Link Nearby VenuesMetar ALERT Operation Metar Decoded Social comments

AIRNAV info for KUGN